createdAt,value
2023-01-07T00:01:44.624Z,101078.78
2023-01-07T00:04:15.523Z,101081.41
2023-01-07T00:06:47.243Z,101087.72
2023-01-07T00:09:17.416Z,101084.16
2023-01-07T00:11:46.444Z,101082.22
2023-01-07T00:14:15.741Z,101084.06
2023-01-07T00:16:44.656Z,101092.75
2023-01-07T00:19:16.835Z,101085.47
2023-01-07T00:21:44.991Z,101080.19
2023-01-07T00:24:13.890Z,101083.69
2023-01-07T00:26:43.385Z,101082.88
2023-01-07T00:29:11.675Z,101078.47
2023-01-07T00:31:41.717Z,101078.69
2023-01-07T00:34:10.373Z,101076.38
2023-01-07T00:36:42.607Z,101081.75
2023-01-07T00:39:14.995Z,101085.25
2023-01-07T00:42:06.436Z,101080.91
2023-01-07T00:44:36.906Z,101082.78
2023-01-07T00:47:04.988Z,101082.41
2023-01-07T00:49:33.105Z,101075.47
2023-01-07T00:52:01.131Z,101071.94
2023-01-07T00:54:29.353Z,101082.03
2023-01-07T00:56:58.737Z,101084.03
2023-01-07T00:59:26.839Z,101079.28
2023-01-07T01:01:55.001Z,101081.09
2023-01-07T01:04:23.065Z,101082.88
2023-01-07T01:06:51.426Z,101079.38
2023-01-07T01:09:20.682Z,101085.41
2023-01-07T01:11:48.760Z,101079.28
2023-01-07T01:14:18.173Z,101083.50
2023-01-07T01:16:46.200Z,101085.91
2023-01-07T01:19:14.265Z,101076.22
2023-01-07T01:21:42.835Z,101071.13
2023-01-07T01:24:11.047Z,101075.50
2023-01-07T01:26:39.144Z,101075.31
2023-01-07T01:29:07.277Z,101068.38
2023-01-07T01:31:36.735Z,101065.56
2023-01-07T01:34:04.980Z,101060.00
2023-01-07T01:36:33.069Z,101067.91
2023-01-07T01:39:01.137Z,101060.94
2023-01-07T01:41:29.285Z,101063.44
2023-01-07T01:43:57.372Z,101058.16
2023-01-07T01:46:40.610Z,101066.31
2023-01-07T01:49:21.997Z,101064.28
2023-01-07T01:51:57.896Z,101066.06
2023-01-07T01:54:28.223Z,101065.47
2023-01-07T01:57:00.999Z,101059.44
2023-01-07T01:59:35.710Z,101065.69
2023-01-07T02:02:07.438Z,101053.38
2023-01-07T02:04:37.509Z,101052.47
2023-01-07T02:07:12.407Z,101056.13
2023-01-07T02:09:40.410Z,101053.63
2023-01-07T02:12:22.581Z,101060.78
2023-01-07T02:15:10.641Z,101058.09
2023-01-07T02:18:02.909Z,101054.66
2023-01-07T02:20:47.926Z,101054.66
2023-01-07T02:24:06.879Z,101051.06
2023-01-07T02:27:18.380Z,101053.69
2023-01-07T02:30:30.023Z,101057.13
2023-01-07T02:33:35.059Z,101050.88
2023-01-07T02:36:31.848Z,101050.63
2023-01-07T02:39:21.389Z,101041.69
2023-01-07T02:41:58.483Z,101044.31
2023-01-07T02:44:38.597Z,101039.25
2023-01-07T02:47:16.931Z,101043.53
2023-01-07T02:49:48.485Z,101036.53
2023-01-07T02:52:21.525Z,101038.38
2023-01-07T02:54:56.771Z,101026.19
2023-01-07T02:58:15.412Z,101022.81
2023-01-07T03:01:20.728Z,101027.22
2023-01-07T03:04:18.288Z,101019.94
2023-01-07T03:07:11.202Z,101017.38
2023-01-07T03:09:55.280Z,101015.72
2023-01-07T03:12:34.951Z,101014.81
2023-01-07T03:15:13.137Z,101016.53
2023-01-07T03:17:50.073Z,101013.63
2023-01-07T03:20:23.238Z,101013.63
2023-01-07T03:22:55.038Z,101013.53
2023-01-07T03:25:26.182Z,101010.03
2023-01-07T03:27:58.693Z,101008.13
2023-01-07T03:30:28.929Z,101011.63
2023-01-07T03:33:03.550Z,101002.84
2023-01-07T03:35:36.866Z,101010.72
2023-01-07T03:38:08.882Z,101010.25
2023-01-07T03:40:37.338Z,101006.09
2023-01-07T03:43:04.414Z,101000.16
2023-01-07T03:45:32.869Z,100999.31
2023-01-07T03:48:00.980Z,100989.63
2023-01-07T03:50:28.977Z,100985.03
2023-01-07T03:52:57.090Z,100991.47
2023-01-07T03:55:26.721Z,100988.16
2023-01-07T03:57:54.785Z,100996.13
2023-01-07T04:00:22.984Z,100996.19
2023-01-07T04:02:51.616Z,100988.34
2023-01-07T04:05:20.494Z,100984.06
2023-01-07T04:07:48.568Z,100977.03
2023-01-07T04:10:16.668Z,100975.31
2023-01-07T04:12:46.068Z,100970.16
2023-01-07T04:15:14.153Z,100971.88
2023-01-07T04:17:42.531Z,100970.16
2023-01-07T04:20:12.163Z,100968.31
2023-01-07T04:22:40.216Z,100976.16
2023-01-07T04:25:09.011Z,100967.41
2023-01-07T04:27:37.121Z,100974.38
2023-01-07T04:30:08.138Z,100965.56
2023-01-07T04:32:36.225Z,100960.31
2023-01-07T04:35:04.764Z,100950.56
2023-01-07T04:37:32.834Z,100958.28
2023-01-07T04:40:00.945Z,100954.41
2023-01-07T04:42:28.950Z,100950.41
2023-01-07T04:44:56.963Z,100957.38
2023-01-07T04:47:26.702Z,100950.34
2023-01-07T04:49:54.744Z,100951.00
2023-01-07T04:52:22.780Z,100948.44
2023-01-07T04:54:50.833Z,100945.13
2023-01-07T04:57:18.862Z,100936.50
2023-01-07T04:59:46.881Z,100927.03
2023-01-07T05:02:15.011Z,100934.06
2023-01-07T05:04:44.568Z,100924.50
2023-01-07T05:07:12.633Z,100931.56
2023-01-07T05:09:40.669Z,100929.84
2023-01-07T05:12:08.765Z,100929.06
2023-01-07T05:14:37.007Z,100919.44
2023-01-07T05:17:05.197Z,100928.31
2023-01-07T05:19:33.289Z,100929.97
2023-01-07T05:22:02.659Z,100932.59
2023-01-07T05:24:30.647Z,100925.56
2023-01-07T05:26:58.729Z,100925.50
2023-01-07T05:29:26.787Z,100932.59
2023-01-07T05:31:54.896Z,100928.19
2023-01-07T05:34:22.880Z,100922.06
2023-01-07T05:36:50.948Z,100925.56
2023-01-07T05:39:20.356Z,100927.34
2023-01-07T05:41:48.392Z,100927.34
2023-01-07T05:44:16.439Z,100926.47
2023-01-07T05:46:45.074Z,100923.13
2023-01-07T05:49:13.141Z,100923.13
2023-01-07T05:51:41.125Z,100926.72
2023-01-07T05:54:09.190Z,100928.56
2023-01-07T05:56:38.548Z,100917.19
2023-01-07T05:59:06.630Z,100928.66
2023-01-07T06:01:34.651Z,100928.69
2023-01-07T06:04:02.784Z,100926.06
2023-01-07T06:06:30.785Z,100927.91
2023-01-07T06:08:58.831Z,100931.41
2023-01-07T06:11:26.870Z,100926.19
2023-01-07T06:13:56.300Z,100922.72
2023-01-07T06:16:24.677Z,100926.25
2023-01-07T06:18:52.802Z,100931.59
2023-01-07T06:21:21.538Z,100927.31
2023-01-07T06:23:49.543Z,100927.31
2023-01-07T06:26:17.597Z,100931.47
2023-01-07T06:28:45.684Z,100920.00
2023-01-07T06:31:15.120Z,100912.66
2023-01-07T06:33:43.163Z,100909.09
2023-01-07T06:36:11.635Z,100911.66
2023-01-07T06:38:41.518Z,100907.97
2023-01-07T06:41:10.261Z,100896.41
2023-01-07T06:43:38.454Z,100892.19
2023-01-07T06:46:07.252Z,100898.50
2023-01-07T06:48:37.029Z,100899.16
2023-01-07T06:51:05.350Z,100894.84
2023-01-07T06:53:33.598Z,100903.56
2023-01-07T06:56:02.009Z,100901.06
2023-01-07T06:58:31.097Z,100897.78
2023-01-07T07:01:04.629Z,100898.75
2023-01-07T07:03:32.826Z,100899.47
2023-01-07T07:06:02.442Z,100898.63
2023-01-07T07:08:30.476Z,100896.19
2023-01-07T07:10:58.511Z,100893.81
2023-01-07T07:13:26.732Z,100897.50
2023-01-07T07:15:55.162Z,100895.97
2023-01-07T07:18:23.194Z,100897.81
2023-01-07T07:20:51.353Z,100898.72
2023-01-07T07:23:20.764Z,100909.44
2023-01-07T07:25:48.807Z,100906.88
2023-01-07T07:28:17.208Z,100905.28
2023-01-07T07:30:47.360Z,100909.81
2023-01-07T07:33:19.111Z,100900.13
2023-01-07T07:35:47.720Z,100899.41
2023-01-07T07:38:17.632Z,100894.00
2023-01-07T07:40:47.065Z,100901.13
2023-01-07T07:43:15.553Z,100897.69
2023-01-07T07:45:44.270Z,100902.09
2023-01-07T07:48:16.484Z,100909.06
2023-01-07T07:50:44.594Z,100904.00
2023-01-07T07:53:13.958Z,100901.25
2023-01-07T07:55:42.745Z,100904.53
2023-01-07T07:58:12.171Z,100904.53
2023-01-07T08:00:40.206Z,100900.25
2023-01-07T08:03:08.865Z,100894.13
2023-01-07T08:05:37.333Z,100895.72
2023-01-07T08:08:06.153Z,100890.41
2023-01-07T08:10:34.405Z,100889.31
2023-01-07T08:13:02.941Z,100890.03
2023-01-07T08:15:33.123Z,100889.09
2023-01-07T08:18:03.119Z,100890.25
2023-01-07T08:20:32.130Z,100884.19
2023-01-07T08:23:01.260Z,100886.81
2023-01-07T08:25:30.829Z,100885.97
2023-01-07T08:28:00.472Z,100884.19
2023-01-07T08:30:29.943Z,100874.53
2023-01-07T08:33:00.281Z,100872.81
2023-01-07T08:35:28.441Z,100874.66
2023-01-07T08:38:03.424Z,100877.28
2023-01-07T08:40:31.559Z,100885.25
2023-01-07T08:43:01.021Z,100890.56
2023-01-07T08:45:30.550Z,100888.91
2023-01-07T08:48:00.609Z,100882.00
2023-01-07T08:50:31.265Z,100884.56
2023-01-07T08:52:59.979Z,100882.75
2023-01-07T08:55:28.137Z,100883.72
2023-01-07T08:57:56.251Z,100891.56
2023-01-07T09:00:25.567Z,100885.44
2023-01-07T09:02:54.064Z,100888.72
2023-01-07T09:05:24.501Z,100886.91
2023-01-07T09:07:54.130Z,100884.13
2023-01-07T09:10:22.593Z,100887.50
2023-01-07T09:12:51.025Z,100878.53
2023-01-07T09:15:19.282Z,100887.16
2023-01-07T09:17:47.488Z,100887.97
2023-01-07T09:20:15.596Z,100881.84
2023-01-07T09:22:45.291Z,100887.84
2023-01-07T09:25:13.568Z,100881.66
2023-01-07T09:27:43.137Z,100868.47
2023-01-07T09:30:12.436Z,100871.91
2023-01-07T09:32:40.723Z,100870.97
2023-01-07T09:35:09.866Z,100877.97
2023-01-07T09:37:38.247Z,100874.34
2023-01-07T09:40:20.366Z,100874.22
2023-01-07T09:42:59.478Z,100867.81
2023-01-07T09:45:32.815Z,100878.88
2023-01-07T09:48:06.839Z,100868.34
2023-01-07T09:50:48.141Z,100861.22
2023-01-07T09:53:22.811Z,100865.44
2023-01-07T09:56:11.127Z,100863.53
2023-01-07T09:58:45.074Z,100860.53
2023-01-07T10:01:27.013Z,100855.78
2023-01-07T10:04:20.538Z,100846.06
2023-01-07T10:07:03.272Z,100852.97
2023-01-07T10:09:49.819Z,100853.69
2023-01-07T10:12:31.635Z,100846.78
2023-01-07T10:15:35.928Z,100854.06
2023-01-07T10:18:33.155Z,100849.34
2023-01-07T10:21:13.865Z,100843.09
2023-01-07T10:23:47.352Z,100840.88
2023-01-07T10:26:30.218Z,100837.38
2023-01-07T10:29:07.696Z,100838.09
2023-01-07T10:31:37.202Z,100835.88
2023-01-07T10:34:15.373Z,100824.63
2023-01-07T10:37:02.291Z,100826.25
2023-01-07T10:39:46.624Z,100820.84
2023-01-07T10:42:24.207Z,100822.50
2023-01-07T10:45:43.438Z,100824.28
2023-01-07T10:48:40.365Z,100810.03
2023-01-07T10:51:25.793Z,100799.03
2023-01-07T10:54:06.416Z,100800.59
2023-01-07T10:56:41.076Z,100788.09
2023-01-07T10:59:15.827Z,100790.66
2023-01-07T11:01:52.226Z,100786.72
2023-01-07T11:04:20.522Z,100785.69
2023-01-07T11:06:54.635Z,100772.19
2023-01-07T11:09:29.428Z,100767.84
2023-01-07T11:12:03.880Z,100770.97
2023-01-07T11:14:37.342Z,100768.66
2023-01-07T11:17:27.079Z,100757.78
2023-01-07T11:19:55.156Z,100756.78
2023-01-07T11:22:35.153Z,100757.63
2023-01-07T11:25:27.049Z,100748.28
2023-01-07T11:27:57.735Z,100748.13
2023-01-07T11:30:29.413Z,100737.19
2023-01-07T11:33:03.884Z,100737.13
2023-01-07T11:35:32.534Z,100741.78
2023-01-07T11:38:01.580Z,100741.53
2023-01-07T11:40:32.405Z,100737.50
2023-01-07T11:43:05.003Z,100733.88
2023-01-07T11:45:37.616Z,100729.44
2023-01-07T11:48:18.515Z,100733.88
2023-01-07T11:50:58.872Z,100721.72
2023-01-07T11:53:37.309Z,100711.16
2023-01-07T11:56:09.230Z,100713.19
2023-01-07T11:58:40.541Z,100704.25
2023-01-07T12:01:19.114Z,100698.25
2023-01-07T12:04:13.888Z,100683.59
2023-01-07T12:06:47.422Z,100679.66
2023-01-07T12:09:26.673Z,100682.16
2023-01-07T12:11:58.501Z,100661.34
2023-01-07T12:14:32.301Z,100663.38
2023-01-07T12:17:12.456Z,100665.34
2023-01-07T12:20:05.318Z,100661.50
2023-01-07T12:22:45.734Z,100658.25
2023-01-07T12:25:35.636Z,100652.13
2023-01-07T12:28:13.368Z,100652.22
2023-01-07T12:31:15.485Z,100646.31
2023-01-07T12:34:05.895Z,100645.72
2023-01-07T12:36:47.018Z,100643.38
2023-01-07T12:39:23.524Z,100645.44
2023-01-07T12:42:04.891Z,100645.44
2023-01-07T12:44:35.281Z,100636.25
2023-01-07T12:47:32.507Z,100628.41
2023-01-07T12:50:11.400Z,100627.66
2023-01-07T12:52:46.350Z,100619.97
2023-01-07T12:55:20.773Z,100622.88
2023-01-07T12:58:12.473Z,100623.09
2023-01-07T13:00:49.889Z,100622.34
2023-01-07T13:03:38.538Z,100618.75
2023-01-07T13:06:15.164Z,100618.75
2023-01-07T13:08:55.634Z,100613.81
2023-01-07T13:11:46.242Z,100610.75
2023-01-07T13:14:25.060Z,100611.94
2023-01-07T13:16:53.114Z,100606.75
2023-01-07T13:19:21.182Z,100607.75
2023-01-07T13:21:51.516Z,100599.06
2023-01-07T13:24:55.612Z,100592.00
2023-01-07T13:27:37.767Z,100592.13
2023-01-07T13:30:24.249Z,100600.97
2023-01-07T13:33:10.754Z,100595.69
2023-01-07T13:36:12.353Z,100593.16
2023-01-07T13:39:14.353Z,100580.88
2023-01-07T13:42:05.140Z,100584.47
2023-01-07T13:45:09.444Z,100575.59
2023-01-07T13:47:47.812Z,100565.22
2023-01-07T13:50:27.923Z,100568.88
2023-01-07T13:53:03.985Z,100555.59
2023-01-07T13:55:40.457Z,100558.31
2023-01-07T13:58:45.700Z,100551.25
2023-01-07T14:01:16.152Z,100551.31
2023-01-07T14:03:49.522Z,100547.81
2023-01-07T14:06:48.034Z,100549.69
2023-01-07T14:09:24.853Z,100540.75
2023-01-07T14:12:49.123Z,100527.56
2023-01-07T14:15:53.830Z,100536.50
2023-01-07T14:19:02.715Z,100530.28
2023-01-07T14:22:03.825Z,100533.09
2023-01-07T14:25:24.634Z,100525.34
2023-01-07T14:28:27.548Z,100529.59
2023-01-07T14:30:58.168Z,100525.41
2023-01-07T14:33:29.400Z,100516.81
2023-01-07T14:36:01.720Z,100526.59
2023-01-07T14:39:06.516Z,100525.84
2023-01-07T14:41:34.731Z,100518.69
2023-01-07T14:44:29.692Z,100514.41
2023-01-07T14:46:59.353Z,100510.16
2023-01-07T14:49:58.055Z,100507.28
2023-01-07T14:53:22.443Z,100497.72
2023-01-07T14:56:31.754Z,100493.41
2023-01-07T14:59:25.307Z,100500.31
2023-01-07T15:02:29.865Z,100502.69
2023-01-07T15:05:23.913Z,100502.16
2023-01-07T15:08:18.624Z,100500.47
2023-01-07T15:11:10.048Z,100500.91
2023-01-07T15:14:05.671Z,100490.50
2023-01-07T15:16:36.944Z,100485.72
2023-01-07T15:19:10.605Z,100482.69
2023-01-07T15:21:58.191Z,100482.22
2023-01-07T15:24:40.024Z,100468.44
2023-01-07T15:27:22.224Z,100464.09
2023-01-07T15:30:00.658Z,100448.88
2023-01-07T15:32:46.680Z,100451.06
2023-01-07T15:35:21.790Z,100451.50
2023-01-07T15:37:52.396Z,100451.41
2023-01-07T15:40:25.300Z,100453.53
2023-01-07T15:42:58.708Z,100443.06
2023-01-07T15:45:28.778Z,100436.94
2023-01-07T15:48:08.470Z,100432.69
2023-01-07T15:50:46.186Z,100435.06
2023-01-07T15:53:22.968Z,100429.03
2023-01-07T15:55:58.922Z,100423.38
2023-01-07T15:58:37.200Z,100426.34
2023-01-07T16:01:06.825Z,100435.25
2023-01-07T16:03:40.304Z,100425.66
2023-01-07T16:06:35.725Z,100416.13
2023-01-07T16:09:18.822Z,100409.72
2023-01-07T16:11:47.051Z,100400.94
2023-01-07T16:14:18.784Z,100398.41
2023-01-07T16:16:46.889Z,100392.28
2023-01-07T16:19:21.373Z,100393.19
2023-01-07T16:21:56.573Z,100399.09
2023-01-07T16:24:25.155Z,100398.47
2023-01-07T16:26:59.157Z,100390.66
2023-01-07T16:29:31.989Z,100388.88
2023-01-07T16:32:02.279Z,100386.63
2023-01-07T16:35:03.507Z,100380.19
2023-01-07T16:37:35.471Z,100379.94
2023-01-07T16:40:06.877Z,100376.00
2023-01-07T16:42:35.689Z,100365.72
2023-01-07T16:45:24.550Z,100374.56
2023-01-07T16:48:21.324Z,100368.44
2023-01-07T16:50:51.135Z,100360.59
2023-01-07T16:53:30.376Z,100351.59
2023-01-07T16:56:16.778Z,100354.84
2023-01-07T16:58:52.720Z,100352.94
2023-01-07T17:01:30.716Z,100349.75
2023-01-07T17:04:02.602Z,100344.63
2023-01-07T17:06:40.495Z,100334.78
2023-01-07T17:09:22.763Z,100342.69
2023-01-07T17:11:53.582Z,100341.16
2023-01-07T17:14:48.761Z,100341.22
2023-01-07T17:17:32.832Z,100346.41
2023-01-07T17:20:22.176Z,100343.88
2023-01-07T17:22:50.840Z,100340.97
2023-01-07T17:25:28.031Z,100330.53
2023-01-07T17:28:00.889Z,100325.97
2023-01-07T17:30:35.983Z,100326.19
2023-01-07T17:33:05.096Z,100324.56
2023-01-07T17:35:33.195Z,100334.34
2023-01-07T17:38:01.250Z,100322.94
2023-01-07T17:40:30.716Z,100321.78
2023-01-07T17:43:16.265Z,100310.53
2023-01-07T17:45:44.311Z,100317.75
2023-01-07T17:48:14.370Z,100307.47
2023-01-07T17:50:43.601Z,100306.94
2023-01-07T17:53:23.073Z,100298.34
2023-01-07T17:55:52.922Z,100298.78
2023-01-07T17:58:29.890Z,100300.81
2023-01-07T18:01:01.533Z,100290.88
2023-01-07T18:03:30.202Z,100283.84
2023-01-07T18:05:58.395Z,100282.91
2023-01-07T18:08:26.442Z,100284.84
2023-01-07T18:11:14.427Z,100271.75
2023-01-07T18:13:43.370Z,100278.81
2023-01-07T18:16:15.483Z,100279.91
2023-01-07T18:18:43.658Z,100279.22
2023-01-07T18:21:13.228Z,100283.63
2023-01-07T18:23:41.314Z,100273.41
2023-01-07T18:26:11.575Z,100286.59
2023-01-07T18:28:39.759Z,100276.13
2023-01-07T18:31:08.231Z,100270.00
2023-01-07T18:33:36.821Z,100271.72
2023-01-07T18:36:05.535Z,100273.56
2023-01-07T18:38:33.707Z,100251.75
2023-01-07T18:41:02.491Z,100259.81
2023-01-07T18:43:32.014Z,100259.13
2023-01-07T18:46:00.167Z,100261.91
2023-01-07T18:48:28.340Z,100261.31
2023-01-07T18:50:57.747Z,100258.84
2023-01-07T18:53:26.649Z,100253.41
2023-01-07T18:56:02.118Z,100252.22
2023-01-07T18:58:31.866Z,100246.72
2023-01-07T19:01:04.593Z,100235.31
2023-01-07T19:03:33.173Z,100237.81
2023-01-07T19:06:05.795Z,100231.75
2023-01-07T19:08:33.931Z,100235.31
2023-01-07T19:11:02.103Z,100230.22
2023-01-07T19:13:31.720Z,100227.50
2023-01-07T19:16:01.326Z,100232.84
2023-01-07T19:18:29.554Z,100234.06
2023-01-07T19:20:57.620Z,100224.69
2023-01-07T19:23:25.668Z,100223.84
2023-01-07T19:26:01.636Z,100220.03
2023-01-07T19:28:32.601Z,100233.53
2023-01-07T19:31:00.884Z,100225.16
2023-01-07T19:33:28.956Z,100226.19
2023-01-07T19:36:03.518Z,100215.97
2023-01-07T19:38:31.991Z,100217.06
2023-01-07T19:41:00.093Z,100219.84
2023-01-07T19:43:28.131Z,100214.75
2023-01-07T19:45:58.371Z,100205.16
2023-01-07T19:48:26.439Z,100207.63
2023-01-07T19:50:56.722Z,100198.97
2023-01-07T19:53:25.162Z,100198.25
2023-01-07T19:55:54.393Z,100187.75
2023-01-07T19:58:22.917Z,100184.19
2023-01-07T20:00:51.070Z,100181.63
2023-01-07T20:03:20.594Z,100182.31
2023-01-07T20:05:48.652Z,100186.97
2023-01-07T20:08:16.675Z,100172.19
2023-01-07T20:10:44.708Z,100164.28
2023-01-07T20:13:12.790Z,100167.38
2023-01-07T20:15:40.854Z,100155.00
2023-01-07T20:18:08.874Z,100148.22
2023-01-07T20:20:38.253Z,100142.09
2023-01-07T20:23:06.264Z,100142.28
2023-01-07T20:25:34.308Z,100131.91
2023-01-07T20:28:02.373Z,100133.13
2023-01-07T20:30:30.471Z,100132.19
2023-01-07T20:32:58.549Z,100118.25
2023-01-07T20:35:26.605Z,100126.16
2023-01-07T20:37:56.128Z,100126.31
2023-01-07T20:40:24.571Z,100116.72
2023-01-07T20:42:52.601Z,100119.28
2023-01-07T20:45:20.663Z,100117.66
2023-01-07T20:47:48.728Z,100112.22
2023-01-07T20:50:18.283Z,100105.44
2023-01-07T20:52:46.384Z,100100.84
2023-01-07T20:55:16.037Z,100091.34
2023-01-07T20:57:44.102Z,100089.13
2023-01-07T21:00:13.797Z,100093.63
2023-01-07T21:02:41.930Z,100072.25
2023-01-07T21:05:10.811Z,100065.88
2023-01-07T21:07:38.864Z,100082.84
2023-01-07T21:10:07.865Z,100079.72
2023-01-07T21:12:37.318Z,100079.56
2023-01-07T21:15:06.766Z,100076.25
2023-01-07T21:17:34.865Z,100078.03
2023-01-07T21:20:03.576Z,100080.66
2023-01-07T21:22:31.801Z,100085.25
2023-01-07T21:24:59.950Z,100072.59
2023-01-07T21:27:28.036Z,100079.97
2023-01-07T21:29:57.483Z,100088.47
2023-01-07T21:32:25.589Z,100090.34
2023-01-07T21:34:53.733Z,100083.44
2023-01-07T21:37:21.811Z,100084.72
2023-01-07T21:39:51.261Z,100076.84
2023-01-07T21:42:19.515Z,100086.34
2023-01-07T21:44:47.567Z,100082.75
2023-01-07T21:47:17.303Z,100070.53
2023-01-07T21:49:45.687Z,100067.94
2023-01-07T21:52:13.784Z,100069.44
2023-01-07T21:54:41.872Z,100069.34
2023-01-07T21:57:09.975Z,100056.50
2023-01-07T21:59:37.994Z,100053.91
2023-01-07T22:02:06.413Z,100052.47
2023-01-07T22:04:36.023Z,100056.97
2023-01-07T22:07:04.108Z,100058.91
2023-01-07T22:09:32.138Z,100057.81
2023-01-07T22:12:00.202Z,100046.34
2023-01-07T22:14:28.335Z,100052.00
2023-01-07T22:16:56.441Z,100055.78
2023-01-07T22:19:25.871Z,100068.75
2023-01-07T22:21:55.447Z,100061.34
2023-01-07T22:24:23.536Z,100060.50
2023-01-07T22:26:52.697Z,100061.69
2023-01-07T22:29:20.754Z,100052.94
2023-01-07T22:31:50.999Z,100054.06
2023-01-07T22:34:19.669Z,100050.06
2023-01-07T22:36:55.025Z,100042.91
2023-01-07T22:39:30.832Z,100038.59
2023-01-07T22:42:06.792Z,100048.94
2023-01-07T22:44:40.619Z,100045.22
2023-01-07T22:47:12.059Z,100041.81
2023-01-07T22:49:41.641Z,100048.19
2023-01-07T22:52:11.599Z,100040.28
2023-01-07T22:54:41.411Z,100043.84
2023-01-07T22:57:12.972Z,100050.66
2023-01-07T22:59:41.096Z,100054.03
2023-01-07T23:02:09.753Z,100048.00
2023-01-07T23:04:37.886Z,100041.13
2023-01-07T23:07:05.985Z,100029.47
2023-01-07T23:09:34.128Z,100019.78
2023-01-07T23:12:03.927Z,100014.44
2023-01-07T23:14:32.497Z,100004.03
2023-01-07T23:17:00.542Z,99996.03
2023-01-07T23:19:30.803Z,99999.69
2023-01-07T23:22:00.120Z,99998.25
2023-01-07T23:24:28.332Z,99990.00
2023-01-07T23:26:57.139Z,99987.19
2023-01-07T23:29:26.786Z,99977.69
2023-01-07T23:31:54.946Z,99975.97
2023-01-07T23:34:23.107Z,99975.72
2023-01-07T23:36:51.137Z,99975.97
2023-01-07T23:39:19.261Z,99965.78
2023-01-07T23:41:47.320Z,99965.78
2023-01-07T23:44:15.516Z,99958.44
2023-01-07T23:46:44.901Z,99969.50
2023-01-07T23:49:13.009Z,99963.28
2023-01-07T23:51:42.212Z,99966.00
2023-01-07T23:54:11.275Z,99966.28
2023-01-07T23:56:39.347Z,99967.50
2023-01-07T23:59:07.519Z,99959.69
